createdAt,value
2018-04-19T00:02:06.654Z,8.48
2018-04-19T00:04:34.830Z,8.23
2018-04-19T00:07:02.930Z,9.30
2018-04-19T00:09:31.138Z,8.35
2018-04-19T00:12:00.064Z,8.40
2018-04-19T00:14:28.227Z,8.38
2018-04-19T00:16:56.401Z,8.23
2018-04-19T00:19:24.574Z,8.88
2018-04-19T00:21:52.706Z,8.82
2018-04-19T00:24:21.707Z,8.98
2018-04-19T00:26:49.834Z,9.40
2018-04-19T00:29:18.082Z,8.45
2018-04-19T00:31:46.252Z,8.48
2018-04-19T00:34:14.424Z,8.68
2018-04-19T00:36:43.297Z,8.50
2018-04-19T00:39:12.203Z,9.20
2018-04-19T00:41:40.308Z,8.60
2018-04-19T00:44:08.439Z,9.30
2018-04-19T00:46:36.564Z,8.73
2018-04-19T00:49:04.700Z,9.00
2018-04-19T00:51:32.962Z,9.52
2018-04-19T00:54:01.072Z,8.80
2018-04-19T00:56:29.204Z,9.15
2018-04-19T00:58:57.332Z,8.77
2018-04-19T01:01:26.233Z,8.45
2018-04-19T01:03:55.116Z,8.98
2018-04-19T01:06:24.047Z,8.30
2018-04-19T01:08:52.157Z,8.43
2018-04-19T01:11:20.296Z,8.88
2018-04-19T01:13:48.458Z,9.88
2018-04-19T01:16:16.604Z,8.48
2018-04-19T01:18:45.575Z,9.27
2018-04-19T01:21:13.740Z,9.23
2018-04-19T01:23:41.876Z,8.35
2018-04-19T01:26:10.041Z,8.80
2018-04-19T01:28:38.135Z,9.18
2018-04-19T01:31:06.339Z,9.20
2018-04-19T01:33:35.332Z,9.55
2018-04-19T01:36:16.048Z,9.65
2018-04-19T01:38:44.213Z,9.80
2018-04-19T01:41:12.316Z,9.25
2018-04-19T01:43:40.453Z,9.40
2018-04-19T01:46:08.625Z,10.00
2018-04-19T01:48:36.798Z,9.82
2018-04-19T01:51:04.930Z,9.10
2018-04-19T01:53:33.839Z,9.05
2018-04-19T01:56:02.748Z,10.65
2018-04-19T01:58:30.870Z,9.75
2018-04-19T02:00:59.094Z,10.40
2018-04-19T02:03:27.267Z,10.07
2018-04-19T02:05:55.375Z,10.18
2018-04-19T02:08:24.330Z,10.43
2018-04-19T02:10:52.432Z,10.60
2018-04-19T02:13:20.671Z,10.32
2018-04-19T02:15:48.845Z,10.15
2018-04-19T02:18:16.977Z,10.32
2018-04-19T02:20:45.957Z,9.45
2018-04-19T02:23:14.183Z,9.37
2018-04-19T02:25:42.354Z,10.63
2018-04-19T02:28:10.524Z,10.77
2018-04-19T02:30:38.635Z,10.00
2018-04-19T02:33:06.872Z,10.18
2018-04-19T02:35:35.005Z,9.57
2018-04-19T02:38:04.031Z,10.23
2018-04-19T02:40:32.135Z,10.10
2018-04-19T02:43:00.377Z,9.40
2018-04-19T02:45:28.512Z,9.80
2018-04-19T02:47:57.499Z,11.05
2018-04-19T02:50:26.540Z,9.90
2018-04-19T02:52:55.393Z,8.57
2018-04-19T02:55:24.275Z,10.07
2018-04-19T02:57:53.179Z,11.60
2018-04-19T03:00:21.307Z,10.27
2018-04-19T03:02:49.438Z,9.68
2018-04-19T03:05:17.571Z,9.88
2018-04-19T03:07:46.467Z,10.10
2018-04-19T03:10:15.396Z,10.20
2018-04-19T03:12:43.523Z,10.18
2018-04-19T03:15:12.421Z,10.43
2018-04-19T03:17:41.415Z,10.15
2018-04-19T03:20:09.536Z,10.23
2018-04-19T03:22:37.682Z,11.00
2018-04-19T03:25:05.862Z,11.05
2018-04-19T03:27:33.965Z,10.80
2018-04-19T03:30:02.097Z,10.88
2018-04-19T03:32:30.233Z,10.25
2018-04-19T03:34:59.111Z,10.98
2018-04-19T03:37:27.341Z,10.60
2018-04-19T03:39:55.456Z,10.05
2018-04-19T03:42:23.681Z,9.95
2018-04-19T03:44:53.439Z,9.20
2018-04-19T03:47:21.662Z,9.70
2018-04-19T03:49:50.525Z,9.50
2018-04-19T03:52:19.496Z,9.87
2018-04-19T03:54:48.434Z,10.27
2018-04-19T03:57:16.579Z,9.73
2018-04-19T03:59:45.448Z,9.68
2018-04-19T04:02:13.583Z,10.25
2018-04-19T04:04:41.798Z,9.90
2018-04-19T04:07:09.923Z,10.17
2018-04-19T04:09:38.035Z,9.15
2018-04-19T04:12:06.222Z,9.02
2018-04-19T04:14:35.203Z,10.95
2018-04-19T04:17:15.931Z,9.13
2018-04-19T04:19:56.031Z,9.75
2018-04-19T04:22:36.799Z,11.80
2018-04-19T04:25:05.679Z,9.80
2018-04-19T04:27:34.570Z,8.95
2018-04-19T04:30:03.466Z,11.02
2018-04-19T04:32:32.451Z,9.93
2018-04-19T04:35:01.333Z,9.75
2018-04-19T04:37:29.551Z,10.37
2018-04-19T04:39:58.440Z,10.27
2018-04-19T04:42:26.596Z,11.05
2018-04-19T04:44:54.712Z,11.15
2018-04-19T04:47:22.925Z,13.15
2018-04-19T04:49:51.854Z,10.88
2018-04-19T04:52:19.975Z,11.50
2018-04-19T04:54:48.909Z,11.60
2018-04-19T04:57:17.904Z,10.85
2018-04-19T04:59:46.111Z,10.25
2018-04-19T05:02:14.347Z,10.35
2018-04-19T05:04:42.448Z,11.70
2018-04-19T05:07:10.579Z,11.30
2018-04-19T05:09:38.718Z,10.30
2018-04-19T05:12:06.945Z,10.73
2018-04-19T05:14:35.091Z,10.70
2018-04-19T05:17:03.994Z,11.90
2018-04-19T05:19:32.102Z,10.55
2018-04-19T05:22:00.253Z,10.80
2018-04-19T05:24:28.408Z,10.68
2018-04-19T05:26:57.278Z,10.98
2018-04-19T05:29:25.477Z,10.15
2018-04-19T05:31:53.603Z,10.45
2018-04-19T05:34:22.604Z,9.85
2018-04-19T05:36:51.627Z,11.40
2018-04-19T05:39:19.739Z,9.40
2018-04-19T05:41:47.970Z,10.35
2018-04-19T05:44:16.107Z,9.63
2018-04-19T05:46:45.109Z,9.75
2018-04-19T05:49:14.023Z,9.50
2018-04-19T05:51:42.149Z,10.35
2018-04-19T05:54:11.054Z,9.70
2018-04-19T05:56:39.177Z,9.70
2018-04-19T05:59:07.430Z,10.23
2018-04-19T06:01:35.575Z,9.65
2018-04-19T06:04:03.724Z,9.13
2018-04-19T06:06:33.388Z,10.17
2018-04-19T06:09:01.532Z,10.07
2018-04-19T06:11:29.676Z,9.48
2018-04-19T06:13:57.855Z,9.83
2018-04-19T06:16:26.780Z,10.02
2018-04-19T06:18:54.921Z,9.52
2018-04-19T06:21:23.951Z,11.03
2018-04-19T06:23:52.252Z,8.63
2018-04-19T06:26:20.395Z,10.63
2018-04-19T06:28:48.632Z,8.70
2018-04-19T06:31:17.563Z,9.20
2018-04-19T06:33:45.676Z,8.40
2018-04-19T06:36:13.932Z,8.37
2018-04-19T06:38:42.077Z,8.67
2018-04-19T06:41:10.191Z,7.57
2018-04-19T06:43:38.425Z,8.27
2018-04-19T06:46:06.559Z,7.93
2018-04-19T06:48:35.482Z,7.60
2018-04-19T06:51:04.476Z,7.80
2018-04-19T06:53:32.647Z,8.13
2018-04-19T06:56:00.763Z,7.23
2018-04-19T06:58:28.904Z,7.50
2018-04-19T07:00:57.096Z,7.90
2018-04-19T07:03:25.196Z,7.83
2018-04-19T07:05:54.075Z,7.80
2018-04-19T07:08:23.114Z,6.90
2018-04-19T07:10:52.308Z,7.03
2018-04-19T07:13:20.454Z,6.53
2018-04-19T07:15:49.484Z,6.80
2018-04-19T07:18:17.655Z,6.70
2018-04-19T07:20:45.763Z,7.13
2018-04-19T07:23:13.993Z,6.40
2018-04-19T07:25:42.165Z,7.07
2018-04-19T07:28:10.284Z,5.50
2018-04-19T07:30:38.409Z,6.30
2018-04-19T07:33:06.506Z,5.93
2018-04-19T07:35:34.653Z,5.63
2018-04-19T07:38:02.763Z,5.73
2018-04-19T07:40:30.904Z,6.10
2018-04-19T07:42:59.048Z,5.47
2018-04-19T07:45:27.163Z,5.30
2018-04-19T07:47:55.373Z,5.83
2018-04-19T07:50:24.284Z,4.10
2018-04-19T07:52:53.194Z,4.60
2018-04-19T07:55:21.308Z,4.90
2018-04-19T07:57:49.434Z,4.80
2018-04-19T08:00:17.611Z,4.60
2018-04-19T08:02:45.745Z,4.60
2018-04-19T08:05:14.819Z,4.20
2018-04-19T08:07:42.908Z,3.93
2018-04-19T08:10:11.844Z,4.80
2018-04-19T08:12:40.001Z,4.70
2018-04-19T08:15:08.135Z,4.20
2018-04-19T08:17:37.019Z,4.70
2018-04-19T08:20:05.918Z,3.87
2018-04-19T08:22:34.915Z,3.70
2018-04-19T08:25:03.830Z,4.77
2018-04-19T08:27:31.932Z,4.47
2018-04-19T08:30:00.137Z,3.73
2018-04-19T08:32:29.040Z,3.90
2018-04-19T08:34:57.966Z,4.00
2018-04-19T08:37:26.849Z,3.30
2018-04-19T08:39:54.976Z,3.70
2018-04-19T08:42:23.879Z,4.17
2018-04-19T08:44:52.859Z,4.10
2018-04-19T08:47:21.041Z,4.13
2018-04-19T08:49:49.956Z,3.40
2018-04-19T08:52:18.061Z,4.10
2018-04-19T08:54:46.216Z,4.00
2018-04-19T08:57:14.328Z,3.90
2018-04-19T08:59:43.258Z,4.00
2018-04-19T09:02:12.147Z,3.83
2018-04-19T09:04:41.140Z,3.57
2018-04-19T09:07:10.029Z,3.47
2018-04-19T09:09:38.167Z,3.80
2018-04-19T09:12:07.069Z,3.40
2018-04-19T09:14:35.945Z,3.50
2018-04-19T09:17:04.928Z,3.73
2018-04-19T09:19:33.100Z,3.20
2018-04-19T09:22:01.214Z,3.60
2018-04-19T09:24:30.102Z,3.20
2018-04-19T09:26:58.232Z,4.13
2018-04-19T09:29:27.838Z,3.57
2018-04-19T09:31:55.972Z,3.53
2018-04-19T09:34:24.080Z,3.70
2018-04-19T09:36:52.983Z,3.60
2018-04-19T09:39:21.921Z,3.80
2018-04-19T09:41:50.076Z,3.40
2018-04-19T09:44:18.248Z,3.40
2018-04-19T09:46:47.240Z,3.23
2018-04-19T09:49:15.337Z,3.27
2018-04-19T09:51:43.478Z,3.00
2018-04-19T09:54:11.718Z,2.70
2018-04-19T09:56:39.823Z,2.33
2018-04-19T09:59:12.600Z,3.23
2018-04-19T10:01:46.585Z,2.80
2018-04-19T10:04:15.489Z,3.17
2018-04-19T10:06:51.668Z,2.90
2018-04-19T10:09:19.836Z,2.73
2018-04-19T10:11:48.701Z,3.20
2018-04-19T10:14:17.584Z,3.00
2018-04-19T10:16:46.504Z,3.00
2018-04-19T10:19:14.649Z,3.17
2018-04-19T10:21:44.256Z,3.00
2018-04-19T10:24:13.174Z,2.20
2018-04-19T10:26:42.061Z,2.93
2018-04-19T10:29:10.184Z,2.70
2018-04-19T10:31:38.408Z,2.67
2018-04-19T10:34:06.521Z,2.53
2018-04-19T10:36:34.650Z,3.00
2018-04-19T10:39:02.753Z,2.90
2018-04-19T10:41:30.955Z,3.03
2018-04-19T10:43:59.886Z,2.80
2018-04-19T10:46:27.993Z,3.07
2018-04-19T10:48:56.226Z,2.77
2018-04-19T10:51:25.120Z,3.30
2018-04-19T10:53:53.219Z,2.77
2018-04-19T10:56:21.358Z,2.73
2018-04-19T10:58:49.496Z,3.20
2018-04-19T11:01:17.624Z,2.67
2018-04-19T11:03:45.773Z,2.57
2018-04-19T11:06:14.667Z,2.80
2018-04-19T11:08:42.786Z,2.93
2018-04-19T11:11:12.413Z,2.53
2018-04-19T11:13:41.355Z,4.00
2018-04-19T11:16:09.612Z,4.60
2018-04-19T11:18:37.778Z,5.23
2018-04-19T11:21:05.884Z,6.03
2018-04-19T11:23:34.090Z,5.30
2018-04-19T11:26:02.970Z,6.00
2018-04-19T11:28:31.868Z,6.33
2018-04-19T11:31:00.788Z,6.27
2018-04-19T11:33:28.963Z,6.43
2018-04-19T11:35:57.133Z,7.00
2018-04-19T11:38:26.023Z,6.30
2018-04-19T11:40:54.981Z,7.10
2018-04-19T11:43:24.098Z,5.43
2018-04-19T11:45:52.288Z,5.70
2018-04-19T11:48:20.396Z,6.80
2018-04-19T11:50:50.125Z,6.30
2018-04-19T11:53:19.028Z,6.73
2018-04-19T11:55:47.941Z,5.70
2018-04-19T11:58:16.066Z,6.30
2018-04-19T12:00:44.287Z,6.13
2018-04-19T12:03:12.460Z,6.73
2018-04-19T12:05:41.322Z,7.10
2018-04-19T12:08:10.244Z,6.80
2018-04-19T12:10:38.389Z,5.90
2018-04-19T12:13:06.511Z,5.90
2018-04-19T12:15:34.631Z,6.27
2018-04-19T12:18:02.828Z,5.60
2018-04-19T12:20:31.691Z,6.80
2018-04-19T12:23:00.622Z,5.73
2018-04-19T12:25:28.775Z,5.37
2018-04-19T12:27:56.889Z,6.60
2018-04-19T12:30:25.034Z,7.77
2018-04-19T12:32:53.163Z,7.40
2018-04-19T12:35:22.083Z,7.00
2018-04-19T12:37:50.255Z,7.50
2018-04-19T12:40:18.530Z,6.37
2018-04-19T12:42:46.694Z,8.40
2018-04-19T12:45:14.875Z,7.50
2018-04-19T12:47:43.043Z,7.23
2018-04-19T12:50:11.159Z,6.20
2018-04-19T12:52:39.393Z,6.30
2018-04-19T12:55:08.280Z,6.60
2018-04-19T12:57:36.416Z,6.70
2018-04-19T13:00:05.352Z,6.30
2018-04-19T13:02:33.507Z,5.03
2018-04-19T13:05:02.473Z,6.33
2018-04-19T13:07:31.393Z,6.10
2018-04-19T13:09:59.516Z,6.90
2018-04-19T13:12:27.750Z,5.80
2018-04-19T13:14:55.913Z,7.40
2018-04-19T13:17:24.788Z,7.10
2018-04-19T13:19:52.975Z,5.63
2018-04-19T13:22:21.864Z,8.07
2018-04-19T13:24:50.036Z,7.50
2018-04-19T13:27:18.927Z,8.37
2018-04-19T13:29:47.067Z,9.17
2018-04-19T13:32:15.987Z,8.00
2018-04-19T13:34:44.979Z,7.77
2018-04-19T13:37:13.868Z,7.17
2018-04-19T13:39:42.823Z,7.53
2018-04-19T13:42:11.724Z,6.93
2018-04-19T13:44:40.620Z,7.90
2018-04-19T13:47:08.753Z,7.87
2018-04-19T13:49:36.986Z,8.03
2018-04-19T13:52:05.978Z,8.03
2018-04-19T13:54:34.101Z,7.93
2018-04-19T13:57:03.720Z,7.80
2018-04-19T13:59:32.746Z,7.17
2018-04-19T14:02:01.724Z,7.83
2018-04-19T14:04:29.815Z,7.80
2018-04-19T14:06:58.034Z,7.70
2018-04-19T14:09:26.177Z,8.70
2018-04-19T14:11:54.337Z,6.90
2018-04-19T14:14:22.523Z,6.63
2018-04-19T14:16:50.628Z,6.50
2018-04-19T14:19:18.767Z,7.60
2018-04-19T14:21:46.885Z,7.23
2018-04-19T14:24:15.904Z,7.63
2018-04-19T14:26:44.820Z,6.87
2018-04-19T14:29:12.968Z,6.30
2018-04-19T14:31:41.140Z,6.70
2018-04-19T14:34:10.057Z,5.90
2018-04-19T14:36:38.157Z,6.77
2018-04-19T14:39:07.085Z,7.13
2018-04-19T14:41:35.196Z,6.63
2018-04-19T14:44:03.352Z,7.10
2018-04-19T14:46:31.469Z,7.00
2018-04-19T14:49:00.417Z,7.20
2018-04-19T14:51:28.567Z,7.13
2018-04-19T14:53:57.457Z,7.17
2018-04-19T14:56:25.595Z,7.00
2018-04-19T14:58:54.722Z,6.40
2018-04-19T15:01:23.580Z,6.43
2018-04-19T15:03:52.605Z,5.37
2018-04-19T15:06:21.469Z,5.97
2018-04-19T15:08:50.363Z,5.37
2018-04-19T15:11:18.555Z,5.40
2018-04-19T15:13:47.445Z,5.17
2018-04-19T15:16:15.617Z,5.00
2018-04-19T15:18:44.508Z,5.07
2018-04-19T15:21:12.611Z,5.07
2018-04-19T15:23:40.791Z,4.43
2018-04-19T15:26:09.024Z,5.27
2018-04-19T15:28:37.893Z,5.23
2018-04-19T15:31:06.942Z,4.50
2018-04-19T15:33:35.188Z,4.90
2018-04-19T15:36:03.358Z,4.97
2018-04-19T15:38:31.471Z,4.40
2018-04-19T15:40:59.603Z,3.97
2018-04-19T15:43:27.768Z,3.90
2018-04-19T15:45:55.896Z,4.50
2018-04-19T15:48:24.115Z,4.37
2018-04-19T15:50:53.896Z,4.05
2018-04-19T15:53:21.996Z,4.33
2018-04-19T15:55:50.132Z,4.33
2018-04-19T15:58:18.240Z,4.33
2018-04-19T16:00:46.420Z,4.33
2018-04-19T16:03:14.528Z,4.40
2018-04-19T16:05:42.797Z,4.70
2018-04-19T16:08:10.900Z,5.30
2018-04-19T16:10:39.826Z,4.80
2018-04-19T16:13:07.922Z,5.00
2018-04-19T16:15:36.162Z,4.90
2018-04-19T16:18:05.028Z,4.57
2018-04-19T16:20:33.920Z,4.53
2018-04-19T16:23:02.052Z,4.70
2018-04-19T16:25:30.192Z,5.10
2018-04-19T16:27:58.332Z,4.20
2018-04-19T16:30:27.243Z,4.50
2018-04-19T16:32:55.420Z,3.30
2018-04-19T16:35:23.551Z,3.90
2018-04-19T16:37:52.508Z,4.07
2018-04-19T16:40:20.692Z,3.53
2018-04-19T16:42:48.821Z,3.73
2018-04-19T16:45:17.815Z,3.23
2018-04-19T16:47:45.990Z,3.20
2018-04-19T16:50:14.134Z,3.00
2018-04-19T16:52:43.046Z,3.60
2018-04-19T16:55:12.001Z,3.63
2018-04-19T16:57:40.971Z,3.27
2018-04-19T17:00:09.203Z,2.60
2018-04-19T17:02:38.093Z,2.43
2018-04-19T17:05:06.251Z,2.93
2018-04-19T17:07:34.449Z,3.23
2018-04-19T17:10:02.557Z,3.00
2018-04-19T17:12:30.687Z,2.97
2018-04-19T17:14:58.813Z,2.47
2018-04-19T17:17:27.713Z,3.10
2018-04-19T17:19:56.835Z,2.10
2018-04-19T17:22:26.654Z,2.63
2018-04-19T17:24:54.757Z,3.30
2018-04-19T17:27:22.987Z,2.97
2018-04-19T17:29:51.989Z,2.43
2018-04-19T17:32:20.162Z,3.33
2018-04-19T17:34:48.289Z,3.13
2018-04-19T17:37:16.512Z,3.10
2018-04-19T17:39:44.632Z,3.30
2018-04-19T17:42:13.678Z,3.10
2018-04-19T17:44:41.853Z,3.20
2018-04-19T17:47:10.000Z,3.47
2018-04-19T17:49:38.134Z,2.60
2018-04-19T17:52:06.329Z,2.70
2018-04-19T17:54:35.225Z,2.73
2018-04-19T17:57:03.369Z,2.80
2018-04-19T17:59:31.571Z,4.10
2018-04-19T18:02:00.506Z,2.40
2018-04-19T18:04:28.661Z,2.80
2018-04-19T18:06:56.813Z,3.20
2018-04-19T18:09:25.714Z,2.63
2018-04-19T18:11:54.612Z,2.60
2018-04-19T18:14:22.729Z,2.70
2018-04-19T18:16:50.965Z,2.20
2018-04-19T18:19:19.122Z,2.77
2018-04-19T18:21:48.031Z,2.43
2018-04-19T18:24:16.163Z,2.20
2018-04-19T18:26:45.119Z,2.30
2018-04-19T18:29:13.358Z,2.40
2018-04-19T18:31:41.521Z,2.60
2018-04-19T18:34:09.718Z,2.50
2018-04-19T18:36:37.878Z,2.37
2018-04-19T18:39:06.039Z,2.67
2018-04-19T18:41:34.604Z,2.80
2018-04-19T18:44:02.803Z,2.87
2018-04-19T18:46:30.939Z,3.00
2018-04-19T18:48:59.867Z,2.43
2018-04-19T18:51:28.002Z,3.13
2018-04-19T18:53:57.020Z,3.00
2018-04-19T18:56:25.904Z,3.00
2018-04-19T18:58:54.040Z,2.67
2018-04-19T19:01:22.742Z,3.60
2018-04-19T19:03:51.710Z,3.27
2018-04-19T19:06:19.882Z,2.60
2018-04-19T19:08:48.831Z,3.00
2018-04-19T19:11:16.974Z,3.03
2018-04-19T19:13:45.923Z,2.80
2018-04-19T19:16:14.082Z,2.97
2018-04-19T19:18:54.293Z,2.43
2018-04-19T19:21:22.474Z,3.13
2018-04-19T19:23:50.657Z,3.87
2018-04-19T19:26:18.837Z,3.40
2018-04-19T19:28:47.005Z,2.43
2018-04-19T19:31:15.176Z,3.10
2018-04-19T19:33:43.359Z,3.80
2018-04-19T19:36:11.489Z,4.30
2018-04-19T19:38:40.433Z,4.13
2018-04-19T19:41:08.683Z,3.40
2018-04-19T19:43:36.879Z,3.60
2018-04-19T19:46:04.985Z,5.43
2018-04-19T19:48:34.118Z,4.77
2018-04-19T19:51:03.040Z,4.50
2018-04-19T19:53:31.288Z,4.13
2018-04-19T19:55:59.462Z,3.10
2018-04-19T19:58:27.641Z,3.50
2018-04-19T20:00:55.755Z,3.30
2018-04-19T20:03:23.925Z,3.77
2018-04-19T20:05:52.153Z,4.50
2018-04-19T20:08:20.426Z,3.33
2018-04-19T20:10:48.550Z,3.77
2018-04-19T20:13:17.516Z,4.20
2018-04-19T20:15:45.672Z,3.90
2018-04-19T20:18:14.012Z,3.90
2018-04-19T20:20:42.210Z,5.33
2018-04-19T20:23:10.352Z,4.10
2018-04-19T20:25:39.277Z,5.50
2018-04-19T20:28:07.459Z,4.23
2018-04-19T20:30:35.611Z,3.80
2018-04-19T20:33:03.869Z,4.20
2018-04-19T20:35:32.825Z,4.40
2018-04-19T20:38:00.950Z,3.70
2018-04-19T20:40:29.071Z,4.40
2018-04-19T20:42:57.222Z,3.97
2018-04-19T20:45:25.392Z,3.90
2018-04-19T20:47:53.541Z,4.00
2018-04-19T20:50:21.666Z,4.23
2018-04-19T20:52:49.882Z,4.10
2018-04-19T20:55:18.533Z,3.70
2018-04-19T20:57:46.734Z,4.00
2018-04-19T21:00:14.864Z,4.70
2018-04-19T21:02:43.026Z,3.90
2018-04-19T21:05:11.183Z,3.83
2018-04-19T21:07:39.334Z,3.80
2018-04-19T21:10:07.484Z,3.70
2018-04-19T21:12:36.784Z,3.40
2018-04-19T21:15:04.932Z,3.87
2018-04-19T21:17:33.865Z,3.63
2018-04-19T21:20:01.998Z,3.23
2018-04-19T21:22:30.140Z,3.80
2018-04-19T21:24:58.312Z,4.03
2018-04-19T21:27:27.227Z,3.90
2018-04-19T21:29:56.879Z,4.03
2018-04-19T21:32:24.989Z,3.80
2018-04-19T21:34:53.197Z,4.20
2018-04-19T21:37:22.109Z,4.33
2018-04-19T21:39:50.270Z,3.93
2018-04-19T21:42:18.385Z,3.53
2018-04-19T21:44:46.543Z,4.00
2018-04-19T21:47:14.680Z,4.97
2018-04-19T21:49:42.819Z,3.73
2018-04-19T21:52:10.954Z,4.70
2018-04-19T21:54:39.109Z,3.73
2018-04-19T21:57:07.234Z,4.77
2018-04-19T21:59:35.387Z,3.90
2018-04-19T22:02:03.515Z,3.90
2018-04-19T22:04:31.658Z,4.27
2018-04-19T22:06:59.788Z,4.17
2018-04-19T22:09:28.044Z,3.80
2018-04-19T22:11:56.146Z,3.97
2018-04-19T22:14:24.365Z,3.80
2018-04-19T22:16:53.284Z,3.73
2018-04-19T22:19:21.429Z,4.00
2018-04-19T22:21:49.708Z,4.23
2018-04-19T22:24:17.848Z,3.93
2018-04-19T22:26:45.977Z,3.57
2018-04-19T22:29:14.106Z,4.00
2018-04-19T22:31:43.004Z,3.77
2018-04-19T22:34:11.160Z,3.97
2018-04-19T22:36:40.044Z,4.23
2018-04-19T22:39:09.055Z,4.97
2018-04-19T22:41:37.195Z,4.17
2018-04-19T22:44:05.350Z,3.33
2018-04-19T22:46:33.493Z,3.57
2018-04-19T22:49:01.615Z,4.10
2018-04-19T22:51:29.740Z,3.90
2018-04-19T22:53:57.896Z,4.03
2018-04-19T22:56:26.023Z,4.53
2018-04-19T22:58:54.225Z,5.20
2018-04-19T23:01:23.171Z,3.83
2018-04-19T23:03:51.317Z,4.40
2018-04-19T23:06:19.474Z,4.40
2018-04-19T23:08:48.380Z,4.50
2018-04-19T23:11:16.511Z,5.20
2018-04-19T23:13:45.420Z,5.20
2018-04-19T23:16:13.567Z,5.10
2018-04-19T23:18:42.474Z,4.43
2018-04-19T23:21:11.463Z,5.03
2018-04-19T23:23:39.669Z,4.70
2018-04-19T23:26:07.789Z,5.37
2018-04-19T23:28:36.692Z,4.90
2018-04-19T23:31:05.659Z,5.03
2018-04-19T23:33:33.743Z,4.90
2018-04-19T23:36:02.650Z,5.20
2018-04-19T23:38:30.803Z,5.05
2018-04-19T23:40:59.703Z,5.28
2018-04-19T23:43:28.699Z,4.87
2018-04-19T23:45:56.858Z,5.10
2018-04-19T23:48:25.852Z,5.20
2018-04-19T23:50:54.782Z,5.60
2018-04-19T23:53:22.890Z,5.65
2018-04-19T23:55:51.128Z,4.85
2018-04-19T23:58:19.359Z,5.82
